This is the latest recevied weather packets stored in our database for station/object DC1RS. If no packets are shown the sender has not sent any weather packets the latest 10 day(s).
| Time | Temp. | Humidity | Pressure | Rain* | Wind** | Luminosity | Snow |
|---|---|---|---|---|---|---|---|
| 1777386051 | 22.22° C | 28% | 1016.3 hPa | 0 mm | - | 558 W/m² | - |
| 1777383561 | 22.78° C | 28% | 1016.9 hPa | 0 mm | - | 659 W/m² | - |
| 1777382001 | 22.22° C | 27% | 1017.1 hPa | 0 mm | - | 610 W/m² | - |
| 1777379481 | 22.22° C | 29% | 1017.6 hPa | 0 mm | - | 781 W/m² | - |
| 1777377891 | 21.67° C | 29% | 1018.1 hPa | 0 mm | - | 763 W/m² | - |
| 1777375482 | 21.67° C | 32% | 1018.2 hPa | 0 mm | - | 817 W/m² | - |
| 1777373831 | 21.11° C | 35% | 1018.5 hPa | 0 mm | - | 824 W/m² | - |
| 1777371471 | 20.56° C | 32% | 1018.7 hPa | 0 mm | - | 812 W/m² | - |
| 1777369941 | 20° C | 33% | 1018.9 hPa | 0 mm | - | 884 W/m² | - |
| 1777367691 | 19.44° C | 34% | 1019.2 hPa | 0 mm | - | 574 W/m² | - |
| 1777366131 | 19.44° C | 35% | 1019.4 hPa | 0 mm | - | 696 W/m² | - |
| 1777365311 | 17.78° C | 37% | 1019.5 hPa | 0 mm | - | 596 W/m² | - |
| 1777363691 | 17.22° C | 41% | 1019.2 hPa | 0 mm | - | 571 W/m² | - |
| 1777361961 | 15.56° C | 49% | 1019.4 hPa | 0 mm | - | 375 W/m² | - |
| 1777360371 | 14.44° C | 52% | 1019.4 hPa | 0 mm | - | 274 W/m² | - |
| 1777358781 | 14.44° C | 53% | 1019.5 hPa | 0 mm | - | 254 W/m² | - |
| 1777356891 | 12.78° C | 58% | 1019.7 hPa | 0 mm | - | 202 W/m² | - |
| 1777355361 | 10.56° C | 64% | 1019.2 hPa | 0 mm | - | 170 W/m² | - |
| 1777352841 | 8.33° C | 78% | 1018.8 hPa | 0 mm | - | 74 W/m² | - |
| 1777351251 | 7.22° C | 80% | 1018.8 hPa | 0 mm | - | 40 W/m² | - |
| 1777350591 | 6.67° C | 80% | 1018.8 hPa | 0 mm | - | 28 W/m² | - |
| 1777349091 | 7.22° C | 78% | 1018.5 hPa | 0 mm | - | 6 W/m² | - |
| 1777347501 | 7.22° C | 79% | 1018.3 hPa | 0 mm | - | 0 W/m² | - |
| 1777346711 | 7.78° C | 77% | 1018.6 hPa | 0 mm | - | 0 W/m² | - |
| 1777345153 | 7.22° C | 73% | 1018.6 hPa | 0 mm | - | 0 W/m² | - |
* Rain latest hour (hover to see other rain measurements)
** Current wind speed in m/s (hover to see current wind gust speed)